Time;durP1;ratioP1;P1;durP2;ratioP2;P2;SDS_P1;SDS_P2;PMS_P1;PMS_P2;Temp;Humidity;BMP_temperature;BMP_pressure;BME280_temperature;BME280_humidity;BME280_pressure;Samples;Min_cycle;Max_cycle;Signal;HPM_P1;HPM_P2
2021/05/13 00:00:13;;;;;;;11.60;8.48;;;;;;;9.23;84.95;100287.94;5013271;28;20121;-85
2021/05/13 00:02:40;;;;;;;9.15;8.10;;;;;;;9.44;83.38;100293.03;5026407;28;20041;-85
2021/05/13 00:05:11;;;;;;;10.32;7.20;;;;;;;9.84;80.88;100311.03;4996725;28;20069;-86
2021/05/13 00:07:39;;;;;;;10.40;7.78;;;;;;;9.64;81.27;100312.91;4992956;28;20060;-86
2021/05/13 00:10:13;;;;;;;9.63;8.15;;;;;;;9.59;81.88;100319.91;4983342;28;20052;-86
2021/05/13 00:15:22;;;;;;;9.95;7.68;;;;;;;9.47;82.57;100292.13;4999275;28;20037;-86
2021/05/13 00:17:53;;;;;;;9.77;7.95;;;;;;;9.48;82.54;100296.47;4990718;28;20066;-87
2021/05/13 00:20:22;;;;;;;9.60;7.88;;;;;;;9.31;82.85;100299.19;4993532;28;20103;-86
2021/05/13 00:22:50;;;;;;;9.88;7.03;;;;;;;9.31;82.61;100278.31;4995093;28;20040;-86
2021/05/13 00:25:16;;;;;;;9.18;7.95;;;;;;;9.23;83.04;100285.31;4992687;28;20541;-87
2021/05/13 00:27:45;;;;;;;10.45;7.70;;;;;;;9.24;82.95;100271.41;5000224;28;20049;-87
2021/05/13 00:30:12;;;;;;;8.65;7.40;;;;;;;9.27;82.40;100308.75;5000694;28;20557;-86
2021/05/13 00:32:40;;;;;;;10.20;8.20;;;;;;;8.93;84.05;100293.28;5010382;28;20114;-86
2021/05/13 00:35:09;;;;;;;10.45;7.78;;;;;;;8.80;83.74;100263.78;5015901;28;20037;-86
2021/05/13 00:37:35;;;;;;;11.90;8.57;;;;;;;8.61;84.15;100265.59;5003319;28;20041;-87
2021/05/13 00:40:05;;;;;;;11.27;8.65;;;;;;;8.86;83.47;100297.66;4995198;28;20049;-86
2021/05/13 00:42:31;;;;;;;12.52;10.30;;;;;;;8.57;84.82;100294.25;5031547;28;20598;-87
2021/05/13 00:44:57;;;;;;;11.23;8.10;;;;;;;8.82;82.91;100310.69;5005936;28;20041;-86
2021/05/13 00:47:29;;;;;;;10.50;8.13;;;;;;;8.71;84.33;100281.19;5017416;28;20414;-86
2021/05/13 00:49:55;;;;;;;10.13;7.85;;;;;;;8.58;84.56;100298.59;5010973;28;20045;-87
2021/05/13 00:52:24;;;;;;;12.68;8.68;;;;;;;8.62;83.80;100269.06;5020679;28;20044;-87
2021/05/13 00:54:50;;;;;;;11.05;8.02;;;;;;;8.31;85.25;100269.13;4995537;28;20049;-87
2021/05/13 00:57:18;;;;;;;8.82;7.63;;;;;;;8.24;85.08;100269.97;4999270;28;20100;-87
2021/05/13 00:59:48;;;;;;;8.82;7.55;;;;;;;8.19;86.01;100312.50;5013745;28;20040;-87
2021/05/13 01:02:19;;;;;;;8.90;7.55;;;;;;;8.23;85.50;100294.28;5011476;28;20657;-87
2021/05/13 01:04:45;;;;;;;10.25;7.85;;;;;;;8.47;84.35;100296.00;4995146;28;20053;-86
2021/05/13 01:07:11;;;;;;;9.40;7.72;;;;;;;8.16;85.71;100294.28;4999702;28;20041;-87
2021/05/13 01:09:37;;;;;;;9.48;7.78;;;;;;;8.38;84.26;100267.34;5001203;28;20054;-87
2021/05/13 01:12:17;;;;;;;9.82;7.35;;;;;;;8.43;84.04;100261.28;5000647;28;20049;-86
2021/05/13 01:14:48;;;;;;;9.35;7.57;;;;;;;8.21;85.45;100281.28;4965025;28;20048;-86
2021/05/13 01:17:36;;;;;;;10.90;7.80;;;;;;;8.07;85.27;100272.59;4999113;28;20073;-86
2021/05/13 01:20:12;;;;;;;8.35;6.78;;;;;;;8.40;83.57;100283.84;5014998;28;20140;-87
2021/05/13 01:22:41;;;;;;;8.73;7.68;;;;;;;8.14;84.43;100276.91;5013753;28;20132;-87
2021/05/13 01:25:13;;;;;;;9.00;7.13;;;;;;;7.81;86.17;100302.97;4987701;28;20068;-87
2021/05/13 01:27:41;;;;;;;9.90;7.45;;;;;;;7.64;86.49;100304.69;4996639;28;20033;-86
2021/05/13 01:30:12;;;;;;;10.93;8.32;;;;;;;7.58;86.47;100260.47;5020267;28;20137;-87
2021/05/13 01:32:43;;;;;;;8.63;7.20;;;;;;;7.97;84.80;100263.94;5014712;28;20126;-86
2021/05/13 01:35:12;;;;;;;10.73;7.10;;;;;;;8.14;83.24;100266.50;5000040;28;20061;-87
2021/05/13 01:37:38;;;;;;;9.55;6.97;;;;;;;7.87;84.23;100277.81;5018736;28;20413;-87
2021/05/13 01:40:05;;;;;;;9.52;7.03;;;;;;;8.02;84.14;100233.56;4995187;28;20417;-87
2021/05/13 01:42:35;;;;;;;9.18;7.63;;;;;;;7.79;84.54;100233.56;4973664;28;20026;-86
2021/05/13 01:45:01;;;;;;;9.38;7.68;;;;;;;7.78;84.24;100250.94;5002759;28;20041;-86
2021/05/13 01:47:36;;;;;;;9.80;7.70;;;;;;;7.71;85.71;100237.91;5005236;28;20094;-87
2021/05/13 01:50:04;;;;;;;9.23;6.82;;;;;;;8.06;83.25;100260.44;5018614;28;20119;-86
2021/05/13 01:52:33;;;;;;;9.63;7.43;;;;;;;7.86;83.94;100240.50;5005025;28;20056;-87
2021/05/13 01:54:58;;;;;;;;;;;;;;;8.15;82.34;100231.81;4988220;28;20144;-87
2021/05/13 01:57:24;;;;;;;7.97;6.00;;;;;;;8.80;78.90;100226.44;5003257;28;20015;-87
2021/05/13 01:59:50;;;;;;;10.27;6.95;;;;;;;8.60;80.19;100232.59;4991109;28;20044;-86
2021/05/13 02:02:16;;;;;;;8.73;7.20;;;;;;;8.28;81.69;100251.75;5015963;28;20054;-86
2021/05/13 02:04:44;;;;;;;8.45;7.10;;;;;;;8.16;81.72;100251.78;5008098;28;20049;-87
2021/05/13 02:07:10;;;;;;;10.32;7.90;;;;;;;7.67;83.88;100221.44;4981320;28;20042;-86
2021/05/13 02:09:38;;;;;;;9.52;7.75;;;;;;;7.42;85.08;100226.63;5020231;28;20127;-87
2021/05/13 02:12:04;;;;;;;10.05;7.90;;;;;;;7.23;86.28;100246.53;4989723;28;20602;-87
2021/05/13 02:14:31;;;;;;;8.70;7.55;;;;;;;7.35;85.19;100221.41;5002032;28;20083;-87
2021/05/13 02:16:57;;;;;;;10.95;7.72;;;;;;;7.57;83.67;100219.69;5001347;28;20045;-87
2021/05/13 02:19:22;;;;;;;11.40;7.57;;;;;;;7.46;84.36;100238.78;4997791;28;20064;-87
2021/05/13 02:21:48;;;;;;;8.27;6.70;;;;;;;7.70;83.36;100218.84;5001062;28;20390;-87
2021/05/13 02:24:14;;;;;;;11.30;7.45;;;;;;;7.36;84.90;100236.16;5005192;28;20041;-87
2021/05/13 02:26:40;;;;;;;10.43;8.05;;;;;;;7.21;85.83;100195.38;5008743;28;20120;-87
2021/05/13 02:29:06;;;;;;;10.43;7.93;;;;;;;7.09;86.01;100197.09;4982177;28;20524;-87
2021/05/13 02:31:32;;;;;;;8.55;6.90;;;;;;;7.35;83.96;100229.22;5017073;28;20041;-87
2021/05/13 02:37:11;;;;;;;8.65;6.63;;;;;;;7.64;83.22;100196.28;4972957;23;20070;-48
2021/05/13 02:39:36;;;;;;;8.02;6.80;;;;;;;7.44;83.75;100196.28;4992478;28;20085;-50
2021/05/13 02:42:02;;;;;;;9.15;6.63;;;;;;;7.11;85.17;100179.75;5014540;28;20052;-51
2021/05/13 02:44:28;;;;;;;9.43;6.82;;;;;;;6.93;85.79;100195.34;4989388;28;20046;-49
2021/05/13 02:46:54;;;;;;;8.00;7.20;;;;;;;7.03;85.31;100193.63;4985677;28;20057;-51
2021/05/13 02:49:19;;;;;;;8.52;7.22;;;;;;;7.18;84.45;100192.78;4988527;28;20038;-48
2021/05/13 02:51:45;;;;;;;9.13;7.28;;;;;;;7.04;85.08;100193.63;4984472;28;20486;-52
2021/05/13 02:54:11;;;;;;;9.52;7.55;;;;;;;6.93;85.30;100200.53;5001270;28;20449;-49
2021/05/13 02:56:36;;;;;;;9.45;7.32;;;;;;;7.06;84.62;100186.72;5000122;28;20394;-51
2021/05/13 02:59:02;;;;;;;8.95;6.90;;;;;;;7.23;83.21;100191.06;5004334;28;20523;-49
2021/05/13 03:01:31;;;;;;;9.75;7.03;;;;;;;7.31;82.68;100198.00;5003429;28;20045;-48
2021/05/13 03:03:58;;;;;;;8.48;6.60;;;;;;;7.06;83.99;100206.63;5003167;28;20583;-49
2021/05/13 03:06:26;;;;;;;8.15;6.78;;;;;;;6.99;83.34;100205.72;5006063;28;20083;-50
2021/05/13 03:08:56;;;;;;;10.82;7.60;;;;;;;7.06;83.90;100207.50;5003563;28;20041;-49
2021/05/13 03:11:24;;;;;;;8.85;6.82;;;;;;;6.93;85.01;100216.13;5003511;28;20074;-48
2021/05/13 03:13:53;;;;;;;10.18;7.30;;;;;;;7.09;84.16;100212.69;5004189;28;20457;-49
2021/05/13 03:16:18;;;;;;;9.85;6.70;;;;;;;7.12;83.83;100210.09;4998571;28;20286;-51
2021/05/13 03:18:50;;;;;;;9.05;7.03;;;;;;;7.18;83.00;100205.78;5002596;28;20067;-49
2021/05/13 03:21:41;;;;;;;8.55;6.28;;;;;;;7.13;82.91;100209.25;5005956;28;20026;-50
2021/05/13 03:24:14;;;;;;;8.52;7.05;;;;;;;6.96;84.43;100200.53;4999915;28;20523;-50
2021/05/13 03:29:09;;;;;;;8.30;6.75;;;;;;;7.19;82.88;100191.94;4988336;28;20181;-49
2021/05/13 03:31:35;;;;;;;9.88;6.93;;;;;;;6.86;84.71;100199.63;4992638;28;20061;-49
2021/05/13 03:34:01;;;;;;;9.48;7.05;;;;;;;6.63;85.81;100195.25;5005268;28;20077;-49
2021/05/13 03:36:27;;;;;;;10.95;7.20;;;;;;;6.61;85.23;100196.09;5002128;28;20041;-48
2021/05/13 03:38:55;;;;;;;9.77;7.40;;;;;;;6.32;86.25;100191.63;5007221;28;20099;-49
2021/05/13 03:41:21;;;;;;;10.93;7.17;;;;;;;6.18;86.67;100182.91;5006118;28;20443;-52
2021/05/13 03:43:47;;;;;;;10.23;7.45;;;;;;;6.25;86.15;100192.47;4999679;28;20041;-50
2021/05/13 03:46:13;;;;;;;7.40;6.28;;;;;;;6.40;85.31;100195.13;5006015;28;20349;-50
2021/05/13 03:48:38;;;;;;;10.50;7.13;;;;;;;6.45;85.22;100193.44;5008676;28;20029;-48
2021/05/13 03:51:04;;;;;;;8.10;6.78;;;;;;;6.89;83.19;100191.00;5017502;28;20037;-48
2021/05/13 03:53:31;;;;;;;10.60;6.80;;;;;;;6.87;83.06;100193.59;5001947;28;20050;-48
2021/05/13 03:55:56;;;;;;;10.15;6.90;;;;;;;6.87;83.49;100192.69;5007757;28;20050;-50
2021/05/13 03:58:26;;;;;;;10.15;7.13;;;;;;;6.80;82.83;100190.09;5002600;28;20060;-49
2021/05/13 04:03:18;;;;;;;8.15;6.65;;;;;;;6.43;85.02;100195.16;5004767;28;20041;-50
2021/05/13 04:05:43;;;;;;;9.18;7.07;;;;;;;6.20;86.37;100196.75;5002211;28;20034;-52
2021/05/13 04:08:10;;;;;;;9.70;7.10;;;;;;;6.29;85.85;100184.69;5002035;28;20041;-48
2021/05/13 04:10:36;;;;;;;10.30;7.80;;;;;;;6.75;84.07;100193.56;4998722;28;20137;-49
2021/05/13 04:13:04;;;;;;;9.45;6.75;;;;;;;6.98;82.46;100183.22;4984907;28;20045;-51
2021/05/13 04:15:30;;;;;;;10.40;7.32;;;;;;;6.39;85.77;100185.59;4987115;28;20497;-48
2021/05/13 04:17:57;;;;;;;9.70;7.53;;;;;;;6.28;86.18;100184.69;5004754;28;20536;-48
2021/05/13 04:20:23;;;;;;;8.85;6.72;;;;;;;6.57;84.27;100179.63;4985286;28;20053;-48
2021/05/13 04:22:48;;;;;;;10.18;7.70;;;;;;;6.47;84.50;100178.72;4994123;28;20042;-48
2021/05/13 04:25:14;;;;;;;10.05;7.22;;;;;;;6.30;85.70;100175.19;5000102;28;20044;-50
2021/05/13 04:27:40;;;;;;;9.52;6.85;;;;;;;6.40;85.43;100176.09;4983219;28;20045;-49
2021/05/13 04:30:06;;;;;;;9.68;7.13;;;;;;;6.26;85.59;100171.72;4986473;28;20360;-52
2021/05/13 04:32:32;;;;;;;10.32;7.57;;;;;;;6.34;85.31;100168.28;4999236;28;20041;-50
2021/05/13 04:34:58;;;;;;;8.90;7.18;;;;;;;6.43;85.19;100169.19;5001215;28;20041;-50
2021/05/13 04:37:23;;;;;;;9.23;7.22;;;;;;;6.60;84.70;100169.22;5005846;28;20073;-48
2021/05/13 04:39:50;;;;;;;9.20;7.00;;;;;;;6.57;84.81;100169.22;5004714;28;20389;-48
2021/05/13 04:42:15;;;;;;;11.10;7.22;;;;;;;6.42;85.30;100157.03;4970430;28;20128;-49
2021/05/13 04:44:41;;;;;;;11.57;8.40;;;;;;;6.40;85.91;100153.59;4986840;28;20045;-50
2021/05/13 04:49:53;;;;;;;10.18;7.43;;;;;;;6.44;85.26;100157.09;4982331;28;20521;-50
2021/05/13 04:52:21;;;;;;;9.52;7.63;;;;;;;6.51;85.14;100160.53;4983451;28;20399;-51
2021/05/13 04:54:51;;;;;;;11.95;8.02;;;;;;;6.67;85.18;100154.53;4981705;28;20063;-49
2021/05/13 04:57:17;;;;;;;11.38;7.90;;;;;;;6.74;84.40;100161.53;4985773;28;20037;-50
2021/05/13 04:59:44;;;;;;;10.70;8.50;;;;;;;6.75;84.98;100165.81;4984016;28;20359;-49
2021/05/13 05:02:10;;;;;;;10.20;7.88;;;;;;;6.69;85.52;100152.84;4996603;28;20052;-51
2021/05/13 05:04:35;;;;;;;10.25;8.15;;;;;;;6.87;86.10;100148.53;5014449;28;20397;-53
2021/05/13 05:07:01;;;;;;;10.35;8.48;;;;;;;6.79;85.92;100145.94;5006244;28;20044;-48
2021/05/13 05:09:27;;;;;;;14.45;9.23;;;;;;;6.79;87.43;100143.34;5005961;28;20049;-52
2021/05/13 05:11:52;;;;;;;11.38;8.13;;;;;;;6.90;86.42;100145.97;5005841;28;20033;-48
2021/05/13 05:14:18;;;;;;;11.02;8.00;;;;;;;6.94;84.88;100142.50;5003113;28;20498;-49
2021/05/13 05:16:44;;;;;;;12.90;9.25;;;;;;;6.99;87.74;100144.25;5005242;28;20050;-49
2021/05/13 05:19:10;;;;;;;13.05;9.95;;;;;;;7.00;88.41;100139.91;5004948;28;20037;-52
2021/05/13 05:21:35;;;;;;;12.75;9.30;;;;;;;7.04;87.53;100139.03;5006002;28;20100;-50
2021/05/13 05:24:01;;;;;;;10.48;7.88;;;;;;;7.15;85.76;100137.31;4984597;28;20048;-51
2021/05/13 05:26:27;;;;;;;13.57;9.02;;;;;;;7.25;86.77;100145.13;5000885;28;20038;-51
2021/05/13 05:28:52;;;;;;;10.32;8.23;;;;;;;7.35;85.90;100133.00;4993131;28;20080;-49
2021/05/13 05:31:18;;;;;;;11.00;8.55;;;;;;;7.46;85.58;100133.84;4989946;28;20049;-48
2021/05/13 05:33:46;;;;;;;11.07;8.30;;;;;;;7.58;84.02;100133.84;5006276;28;20075;-52
2021/05/13 05:36:12;;;;;;;10.82;7.75;;;;;;;7.64;82.78;100132.97;5006055;28;20601;-49
2021/05/13 05:38:38;;;;;;;12.10;8.88;;;;;;;7.87;83.63;100135.53;4989302;28;20132;-51
2021/05/13 05:41:09;;;;;;;10.10;7.55;;;;;;;7.82;81.43;100132.97;4997538;28;20049;-50
2021/05/13 05:43:35;;;;;;;10.18;8.13;;;;;;;7.87;83.97;100130.34;4995829;28;20223;-51
2021/05/13 05:46:01;;;;;;;9.75;7.80;;;;;;;7.94;82.07;100128.59;4990075;28;20807;-51
2021/05/13 05:48:26;;;;;;;10.50;7.57;;;;;;;8.06;80.27;100136.38;5004658;28;20558;-48
2021/05/13 05:50:52;;;;;;;15.73;10.00;;;;;;;8.03;85.54;100131.19;5005729;28;20060;-48
2021/05/13 05:53:18;;;;;;;13.20;10.02;;;;;;;7.98;87.04;100127.72;5004777;28;20057;-48
2021/05/13 05:55:43;;;;;;;12.90;9.15;;;;;;;7.98;85.61;100128.56;4987873;28;20045;-49
2021/05/13 05:58:09;;;;;;;10.93;8.23;;;;;;;8.12;78.64;100125.06;4989650;28;20518;-48
2021/05/13 06:00:35;;;;;;;11.88;8.82;;;;;;;8.28;77.27;100125.84;5007059;28;20041;-49
2021/05/13 06:03:01;;;;;;;15.27;10.82;;;;;;;8.40;85.70;100118.00;5007451;28;20065;-52
2021/05/13 06:05:27;;;;;;;14.15;10.68;;;;;;;8.47;85.19;100122.38;4989742;28;20073;-49
2021/05/13 06:07:53;;;;;;;11.10;9.00;;;;;;;8.45;85.23;100123.25;4995662;28;20646;-52
2021/05/13 06:10:21;;;;;;;15.35;10.40;;;;;;;8.55;87.34;100121.44;5006470;28;20053;-48
2021/05/13 06:12:48;;;;;;;14.73;11.23;;;;;;;8.60;87.94;100114.47;4994634;28;20036;-53
2021/05/13 06:15:16;;;;;;;16.50;10.85;;;;;;;8.66;87.33;100114.44;5005280;28;20033;-51
2021/05/13 06:17:44;;;;;;;12.33;9.87;;;;;;;8.84;83.94;100106.50;5028505;28;20508;-52
2021/05/13 06:20:27;;;;;;;9.33;7.47;;;;;;;9.03;79.39;100111.59;5007819;28;20431;-50
2021/05/13 06:22:53;;;;;;;11.02;8.48;;;;;;;9.08;82.71;100104.59;5002920;28;20045;-51
2021/05/13 06:25:20;;;;;;;11.10;8.07;;;;;;;9.15;83.48;100106.28;5006615;28;20131;-50
2021/05/13 06:27:46;;;;;;;12.13;8.73;;;;;;;9.19;83.04;100108.00;5005602;28;20656;-51
2021/05/13 06:30:14;;;;;;;11.95;8.93;;;;;;;9.26;86.44;100108.78;5011429;28;20041;-51
2021/05/13 06:32:41;;;;;;;11.07;8.70;;;;;;;9.32;86.43;100107.91;5009503;28;20601;-52
2021/05/13 06:35:07;;;;;;;11.20;8.82;;;;;;;9.65;82.63;100109.34;5011831;28;20071;-53
2021/05/13 06:37:33;;;;;;;13.30;9.43;;;;;;;9.85;82.67;100109.09;5007329;28;20042;-52
2021/05/13 06:39:59;;;;;;;11.18;7.95;;;;;;;9.75;81.94;100104.88;5004342;28;20029;-49
2021/05/13 06:42:24;;;;;;;11.98;8.25;;;;;;;10.20;80.12;100112.22;4990973;28;20553;-52
2021/05/13 06:44:51;;;;;;;11.10;8.50;;;;;;;10.36;78.80;100110.31;4988963;28;20038;-50
2021/05/13 06:47:17;;;;;;;8.88;7.20;;;;;;;10.26;77.90;100108.66;4985922;28;20076;-50
2021/05/13 06:49:42;;;;;;;9.20;7.57;;;;;;;10.44;79.88;100103.25;4985367;28;20798;-49
2021/05/13 06:52:08;;;;;;;9.23;7.45;;;;;;;11.07;76.20;100110.16;4983644;28;20112;-48
2021/05/13 06:54:34;;;;;;;9.65;8.18;;;;;;;11.11;76.49;100103.13;4989618;28;20041;-50
2021/05/13 06:57:00;;;;;;;11.95;7.47;;;;;;;10.93;74.53;100101.66;4986369;28;20289;-52
2021/05/13 06:59:27;;;;;;;9.90;7.30;;;;;;;10.64;77.12;100113.41;4988086;28;20099;-50
2021/05/13 07:01:56;;;;;;;11.65;8.20;;;;;;;10.99;78.02;100114.63;4981346;28;20038;-48
2021/05/13 07:04:22;;;;;;;10.93;7.80;;;;;;;11.36;75.52;100111.44;4983394;28;20038;-48
2021/05/13 07:06:48;;;;;;;9.73;7.97;;;;;;;11.54;74.99;100106.78;4988190;28;20031;-49
2021/05/13 07:09:14;;;;;;;12.00;8.13;;;;;;;11.64;75.13;100107.50;4988760;28;20038;-50
2021/05/13 07:11:40;;;;;;;10.55;8.30;;;;;;;11.30;76.98;100102.81;4983193;28;20093;-51
2021/05/13 07:14:06;;;;;;;10.52;8.43;;;;;;;11.42;77.23;100107.84;4991486;28;20097;-49
2021/05/13 07:16:34;;;;;;;9.60;7.70;;;;;;;11.58;76.12;100111.94;5003559;28;20049;-53
2021/05/13 07:19:03;;;;;;;10.30;8.15;;;;;;;12.07;74.62;100111.94;5000374;28;20045;-49
2021/05/13 07:21:29;;;;;;;9.45;7.97;;;;;;;11.83;72.28;100105.41;5005626;28;20444;-49
2021/05/13 07:23:56;;;;;;;9.52;8.07;;;;;;;11.50;74.69;100102.50;5002090;28;20064;-49
2021/05/13 07:26:22;;;;;;;10.68;8.10;;;;;;;11.56;75.90;100099.75;5006454;28;20098;-48
2021/05/13 07:28:48;;;;;;;9.25;8.20;;;;;;;11.64;75.06;100099.63;5004657;28;20076;-50
2021/05/13 07:31:14;;;;;;;9.65;7.97;;;;;;;11.37;76.82;100096.63;5010398;28;21399;-48
2021/05/13 07:33:40;;;;;;;9.88;7.43;;;;;;;11.43;77.37;100096.50;5011066;28;20044;-48
2021/05/13 07:36:07;;;;;;;9.88;7.97;;;;;;;11.41;75.17;100093.91;5005417;28;20060;-51
2021/05/13 07:38:34;;;;;;;10.07;7.50;;;;;;;11.50;75.46;100092.88;5002833;28;20030;-50
2021/05/13 07:41:02;;;;;;;9.75;7.30;;;;;;;11.50;75.39;100099.88;5000545;28;20132;-48
2021/05/13 07:43:28;;;;;;;9.55;7.95;;;;;;;11.61;76.52;100095.31;5006890;28;20128;-51
2021/05/13 07:45:54;;;;;;;8.30;6.90;;;;;;;12.19;73.21;100098.59;5025664;28;20037;-49
2021/05/13 07:48:20;;;;;;;9.65;7.20;;;;;;;12.70;71.16;100089.66;5002605;28;20041;-48
2021/05/13 07:50:47;;;;;;;8.82;7.32;;;;;;;12.61;70.39;100084.59;4985754;28;20074;-49
2021/05/13 07:53:12;;;;;;;9.05;7.88;;;;;;;12.66;70.64;100082.75;4995928;28;20044;-49
2021/05/13 07:55:38;;;;;;;9.35;7.70;;;;;;;12.28;71.46;100089.69;5003311;28;20045;-49
2021/05/13 07:58:05;;;;;;;8.95;7.55;;;;;;;12.14;73.66;100087.34;5006124;28;20203;-48
2021/05/13 08:00:31;;;;;;;8.77;7.50;;;;;;;12.94;69.14;100075.09;5004148;28;20557;-49
2021/05/13 08:02:57;;;;;;;9.25;7.55;;;;;;;12.86;69.46;100074.44;5001552;28;20069;-49
2021/05/13 08:05:23;;;;;;;8.13;6.20;;;;;;;12.92;67.92;100074.28;5004066;28;20160;-49
2021/05/13 08:07:48;;;;;;;8.48;6.47;;;;;;;13.15;64.74;100078.09;4996656;28;20131;-50
2021/05/13 08:10:14;;;;;;;8.35;5.97;;;;;;;13.09;67.21;100071.22;5003860;28;21113;-48
2021/05/13 08:12:40;;;;;;;7.90;5.90;;;;;;;12.83;68.52;100069.22;5012121;28;20705;-53
2021/05/13 08:15:09;;;;;;;8.10;6.45;;;;;;;13.37;65.70;100074.97;5001765;28;20384;-52
2021/05/13 08:17:35;;;;;;;8.40;6.95;;;;;;;13.08;64.09;100074.78;5005397;28;20156;-49
2021/05/13 08:20:01;;;;;;;8.10;6.35;;;;;;;13.49;65.61;100076.41;4999711;28;20050;-51
2021/05/13 08:22:27;;;;;;;7.25;5.20;;;;;;;13.70;62.49;100072.34;4984517;28;20045;-49
2021/05/13 08:24:53;;;;;;;7.88;6.03;;;;;;;13.72;62.93;100079.28;5001559;28;20393;-48
2021/05/13 08:27:18;;;;;;;8.20;6.00;;;;;;;13.29;64.60;100078.63;5000662;28;20107;-49
2021/05/13 08:29:44;;;;;;;5.75;4.60;;;;;;;13.43;61.25;100067.78;4998683;28;20059;-48
2021/05/13 08:32:09;;;;;;;5.82;4.10;;;;;;;13.19;61.92;100065.75;4999537;28;20049;-50
2021/05/13 08:34:35;;;;;;;7.35;4.97;;;;;;;14.07;59.54;100071.34;4995356;28;20200;-49
2021/05/13 08:37:02;;;;;;;7.28;5.82;;;;;;;14.25;59.89;100060.28;5001052;28;20593;-48
2021/05/13 08:39:27;;;;;;;7.90;5.88;;;;;;;14.00;60.68;100067.13;5006073;28;20033;-48
2021/05/13 08:41:53;;;;;;;7.50;5.65;;;;;;;13.82;61.34;100066.75;5004874;28;20052;-48
2021/05/13 08:44:19;;;;;;;8.68;5.57;;;;;;;14.31;59.40;100060.06;4988514;28;20034;-48
2021/05/13 08:46:47;;;;;;;7.88;5.30;;;;;;;14.30;60.78;100058.38;4990053;28;20033;-51
2021/05/13 08:49:12;;;;;;;7.40;5.55;;;;;;;14.04;57.14;100060.88;4996486;28;20462;-48
2021/05/13 08:51:39;;;;;;;6.10;4.50;;;;;;;14.52;57.32;100052.44;4985786;28;20125;-48
2021/05/13 08:54:05;;;;;;;6.35;5.28;;;;;;;14.27;58.63;100055.84;4996038;28;20662;-48
2021/05/13 08:56:32;;;;;;;6.78;5.00;;;;;;;14.97;54.04;100044.03;5000360;28;20042;-49
2021/05/13 08:59:03;;;;;;;6.45;5.00;;;;;;;14.54;55.85;100050.66;4999935;28;20478;-51
2021/05/13 09:01:31;;;;;;;6.75;4.40;;;;;;;14.16;56.72;100043.91;4999477;28;20036;-53
2021/05/13 09:04:01;;;;;;;6.25;4.55;;;;;;;14.16;57.12;100039.50;4994981;28;20044;-50
2021/05/13 09:06:36;;;;;;;5.45;4.50;;;;;;;14.06;54.74;100045.94;5004951;28;20422;-50
2021/05/13 09:09:10;;;;;;;7.78;3.85;;;;;;;14.60;51.69;100039.06;4997912;28;20053;-50
2021/05/13 09:11:35;;;;;;;7.45;3.90;;;;;;;14.29;55.90;100035.63;4998260;28;20176;-48
2021/05/13 09:14:02;;;;;;;6.43;3.47;;;;;;;14.20;54.18;100029.78;5005173;28;20128;-50
2021/05/13 09:16:35;;;;;;;5.38;3.50;;;;;;;14.13;55.99;100029.94;5005278;28;20048;-50
2021/05/13 09:19:25;;;;;;;5.28;2.70;;;;;;;15.72;44.33;100033.63;5005042;28;20632;-53
2021/05/13 09:21:58;;;;;;;6.25;3.47;;;;;;;15.48;46.81;100025.66;4999773;28;20104;-49
2021/05/13 09:24:44;;;;;;;8.70;4.13;;;;;;;14.76;50.00;100024.56;5009800;28;20045;-49
2021/05/13 09:27:15;;;;;;;5.05;2.80;;;;;;;14.60;52.60;100018.03;5006568;28;20379;-51
2021/05/13 09:29:41;;;;;;;4.32;2.80;;;;;;;14.71;52.63;100017.72;5014593;28;20045;-50
2021/05/13 09:32:20;;;;;;;4.03;2.55;;;;;;;14.68;53.73;100012.56;4999615;28;20160;-50
2021/05/13 09:34:47;;;;;;;5.38;3.10;;;;;;;14.66;50.86;100015.22;4995607;28;20719;-52
2021/05/13 09:37:13;;;;;;;5.35;3.15;;;;;;;14.96;51.79;100015.13;5008031;28;20180;-49
2021/05/13 09:39:48;;;;;;;4.70;3.40;;;;;;;15.32;51.71;100014.81;5011708;28;20044;-49
2021/05/13 09:42:18;;;;;;;6.28;3.20;;;;;;;15.48;52.05;100020.41;5009279;28;21322;-52
2021/05/13 09:44:46;;;;;;;5.75;3.50;;;;;;;15.32;47.19;100020.06;5011446;28;20056;-53
2021/05/13 09:47:26;;;;;;;8.07;3.60;;;;;;;15.48;51.20;100015.13;5010741;28;20096;-53
2021/05/13 09:49:53;;;;;;;4.43;2.63;;;;;;;15.48;49.34;100018.63;5003598;28;20048;-53
2021/05/13 09:52:47;;;;;;;5.28;2.90;;;;;;;15.85;49.33;100021.72;5002967;28;20549;-48
2021/05/13 09:55:28;;;;;;;4.93;2.90;;;;;;;16.16;48.33;100016.16;4987256;28;20470;-51
2021/05/13 09:58:06;;;;;;;5.28;2.00;;;;;;;16.23;46.47;100010.66;5001984;28;20029;-53
2021/05/13 10:00:47;;;;;;;5.22;2.80;;;;;;;16.39;44.32;100000.38;4988809;28;20486;-50
2021/05/13 10:03:17;;;;;;;3.97;1.90;;;;;;;16.26;45.47;100006.13;4988477;28;20473;-49
2021/05/13 10:05:48;;;;;;;3.85;2.00;;;;;;;16.72;41.00;100000.78;5013104;28;20045;-49
2021/05/13 10:08:16;;;;;;;3.83;2.00;;;;;;;16.62;39.68;100000.31;5002540;28;20045;-48
2021/05/13 10:10:42;;;;;;;7.50;2.50;;;;;;;16.97;40.31;100003.28;4998494;28;20050;-50
2021/05/13 10:13:09;;;;;;;5.13;2.00;;;;;;;17.10;39.65;99994.84;4982780;28;20512;-51
2021/05/13 10:15:40;;;;;;;4.50;2.25;;;;;;;16.98;43.89;99997.09;4987750;28;20045;-49
2021/05/13 10:18:19;;;;;;;4.55;2.10;;;;;;;16.78;38.04;99983.84;4985323;28;21084;-50
2021/05/13 10:20:50;;;;;;;4.50;1.65;;;;;;;16.40;42.82;99975.72;4997658;28;20128;-50
2021/05/13 10:23:15;;;;;;;5.03;1.75;;;;;;;16.88;39.99;99986.94;5006066;28;20087;-50
2021/05/13 10:25:41;;;;;;;4.10;1.40;;;;;;;16.82;42.04;99985.44;4998459;28;20593;-49
2021/05/13 10:28:12;;;;;;;5.88;2.10;;;;;;;16.99;38.60;99982.97;4984498;28;20502;-52
2021/05/13 10:30:37;;;;;;;3.60;1.67;;;;;;;17.22;38.30;99975.84;4986242;28;20042;-48
2021/05/13 10:33:18;;;;;;;5.63;1.80;;;;;;;17.42;37.34;99974.13;4982372;28;20388;-48
2021/05/13 10:36:04;;;;;;;4.47;1.63;;;;;;;17.39;38.12;99968.97;4965420;28;20410;-47
2021/05/13 10:38:38;;;;;;;3.90;1.60;;;;;;;17.01;41.44;99967.91;4984027;28;20185;-50
2021/05/13 10:41:33;;;;;;;4.90;1.95;;;;;;;17.73;36.38;99965.69;4984237;28;20050;-47
2021/05/13 10:44:19;;;;;;;4.38;1.50;;;;;;;17.55;39.06;99961.22;4994154;28;20041;-50
2021/05/13 10:46:55;;;;;;;4.78;2.13;;;;;;;17.55;36.63;99962.06;4993807;28;20034;-49
2021/05/13 10:49:25;;;;;;;3.70;1.40;;;;;;;17.78;36.09;99950.47;4980358;28;20042;-49
2021/05/13 10:51:57;;;;;;;3.80;1.40;;;;;;;17.76;38.58;99952.31;4979503;28;20037;-49
2021/05/13 10:54:32;;;;;;;3.70;1.80;;;;;;;17.52;40.29;99949.84;4977543;28;20073;-48
2021/05/13 10:57:20;;;;;;;4.40;1.80;;;;;;;17.92;35.26;99946.38;4975232;28;20053;-49
2021/05/13 11:00:05;;;;;;;4.13;1.52;;;;;;;17.56;41.55;99947.94;4974586;28;20045;-48
2021/05/13 11:02:46;;;;;;;3.65;1.50;;;;;;;18.17;39.28;99946.91;4978119;28;20037;-48
2021/05/13 11:05:28;;;;;;;4.75;1.75;;;;;;;17.77;39.95;99946.09;4967555;28;20038;-50
2021/05/13 11:07:54;;;;;;;4.32;1.67;;;;;;;18.31;36.20;99935.66;4981525;28;20049;-49
2021/05/13 11:10:21;;;;;;;4.28;1.63;;;;;;;17.89;35.38;99934.13;4990037;28;20050;-49
2021/05/13 11:12:48;;;;;;;4.32;1.38;;;;;;;17.78;38.43;99939.91;4998407;28;20432;-49
2021/05/13 11:15:25;;;;;;;3.42;1.15;;;;;;;17.83;37.57;99935.25;4983416;28;20042;-49
2021/05/13 11:17:58;;;;;;;;;;;;;;;17.79;36.71;99938.97;4968136;28;20058;-49
2021/05/13 11:20:30;;;;;;;2.22;0.95;;;;;;;18.12;30.99;99935.69;5001095;28;20047;-48
2021/05/13 11:23:19;;;;;;;2.80;1.00;;;;;;;18.62;30.08;99931.53;4990287;28;20076;-51
2021/05/13 11:25:50;;;;;;;;;;;;;;;18.09;31.41;99924.41;4989671;28;20205;-48
2021/05/13 11:28:35;;;;;;;1.70;0.80;;;;;;;18.09;32.44;99924.41;4995490;28;19972;-50
2021/05/13 11:31:04;;;;;;;2.78;1.20;;;;;;;18.52;33.88;99930.25;4985636;28;20390;-50
2021/05/13 11:33:56;;;;;;;3.90;1.13;;;;;;;18.23;33.46;99923.75;5019403;28;20048;-50
2021/05/13 11:36:37;;;;;;;2.88;1.00;;;;;;;17.97;35.46;99926.72;4998042;28;20355;-50
2021/05/13 11:39:18;;;;;;;2.00;1.25;;;;;;;18.74;31.70;99919.44;4982304;28;20115;-50
2021/05/13 11:41:45;;;;;;;3.78;1.60;;;;;;;18.44;35.29;99917.41;4964630;28;20050;-49
2021/05/13 11:44:12;;;;;;;4.10;1.57;;;;;;;18.27;34.51;99923.50;4980767;28;20037;-52
2021/05/13 11:46:39;;;;;;;2.42;1.30;;;;;;;18.64;35.13;99921.69;4981641;28;20291;-48
2021/05/13 11:49:08;;;;;;;2.22;1.40;;;;;;;18.14;34.23;99911.81;4981286;28;20042;-49